Time;durP1;ratioP1;P1;durP2;ratioP2;P2;SDS_P1;SDS_P2;PMS_P1;PMS_P2;Temp;Humidity;BMP_temperature;BMP_pressure;BME280_temperature;BME280_humidity;BME280_pressure;Samples;Min_cycle;Max_cycle;Signal;HPM_P1;HPM_P2
2022/01/27 00:05:14;;;;;;;23.75;10.35;;;0.00;99.90;;;;;;5042953;28;20033;-85
2022/01/27 00:07:41;;;;;;;25.27;10.43;;;-0.10;99.90;;;;;;5043734;28;20068;-82
2022/01/27 00:12:42;;;;;;;28.25;11.23;;;-0.20;99.90;;;;;;5060776;28;20486;-84
2022/01/27 00:15:10;;;;;;;29.25;10.13;;;0.00;99.90;;;;;;5028830;28;20034;-83
2022/01/27 00:17:44;;;;;;;21.60;9.35;;;0.00;99.90;;;;;;4988574;28;20101;-83
2022/01/27 00:20:11;;;;;;;19.90;9.57;;;0.00;99.90;;;;;;5020129;28;20212;-82
2022/01/27 00:22:37;;;;;;;26.55;11.15;;;0.00;99.90;;;;;;5003659;28;20034;-83
2022/01/27 00:25:05;;;;;;;25.67;10.43;;;1.80;99.90;;;;;;5007858;28;20018;-82
2022/01/27 00:27:31;;;;;;;26.90;10.35;;;0.00;99.90;;;;;;5039924;28;20112;-82
2022/01/27 00:30:00;;;;;;;28.77;11.85;;;-0.10;99.90;;;;;;5041801;28;20061;-83
2022/01/27 00:32:25;;;;;;;33.22;13.30;;;-0.20;99.90;;;;;;5039273;28;20042;-82
2022/01/27 00:34:51;;;;;;;29.73;11.88;;;1.30;99.90;;;;;;5008860;28;20060;-83
2022/01/27 00:37:16;;;;;;;30.45;11.50;;;-0.20;99.90;;;;;;5020373;28;20124;-82
2022/01/27 00:39:42;;;;;;;28.77;12.30;;;-0.10;99.90;;;;;;5003388;28;20030;-83
2022/01/27 00:42:08;;;;;;;32.10;12.07;;;-0.10;99.90;;;;;;5004023;28;20596;-83
2022/01/27 00:44:33;;;;;;;35.85;12.98;;;-0.10;99.90;;;;;;5006113;28;20018;-83
2022/01/27 00:46:59;;;;;;;35.65;12.00;;;-0.20;99.90;;;;;;5019453;28;20026;-83
2022/01/27 00:49:25;;;;;;;35.03;12.90;;;0.00;99.90;;;;;;5002037;28;20052;-82
2022/01/27 00:51:51;;;;;;;31.02;12.30;;;1.10;99.90;;;;;;5022850;28;20549;-82
2022/01/27 00:54:23;;;;;;;30.63;13.50;;;0.00;99.90;;;;;;5056400;28;20061;-82
2022/01/27 00:56:58;;;;;;;26.70;12.25;;;-0.10;99.90;;;;;;5039379;28;20025;-85
2022/01/27 00:59:35;;;;;;;35.05;13.38;;;-0.20;99.90;;;;;;5044697;28;20108;-81
2022/01/27 01:02:42;;;;;;;31.85;12.07;;;0.00;99.90;;;;;;5057996;28;20032;-82
2022/01/27 01:05:10;;;;;;;30.33;13.65;;;1.00;99.90;;;;;;5050333;28;20014;-82
2022/01/27 01:07:40;;;;;;;32.65;13.07;;;-0.10;99.90;;;;;;5008990;28;20026;-82
2022/01/27 01:15:38;;;;;;;28.70;11.65;;;-0.20;99.90;;;;;;5019972;28;20037;-83
2022/01/27 01:18:18;;;;;;;31.55;13.35;;;-0.10;99.90;;;;;;5021877;28;20022;-82
2022/01/27 01:33:57;;;;;;;31.70;12.32;;;-0.30;99.90;;;;;;5061025;28;20037;-85
2022/01/27 01:36:34;;;;;;;32.80;13.63;;;-0.20;99.90;;;;;;5040136;28;20036;-84
2022/01/27 01:39:00;;;;;;;29.15;12.82;;;-0.30;99.90;;;;;;5040840;28;20474;-83
2022/01/27 01:41:25;;;;;;;36.15;13.63;;;-0.10;99.90;;;;;;5040548;28;20035;-83
2022/01/27 01:43:51;;;;;;;36.08;13.65;;;-0.10;99.90;;;;;;5046069;28;20017;-82
2022/01/27 01:46:16;;;;;;;32.28;13.23;;;-0.10;99.90;;;;;;5036751;28;20044;-84
2022/01/27 01:48:42;;;;;;;36.08;13.98;;;0.10;99.90;;;;;;5013861;28;20030;-82
2022/01/27 01:51:08;;;;;;;30.55;13.15;;;-0.10;99.90;;;;;;5022441;28;20089;-81
2022/01/27 01:53:33;;;;;;;35.88;14.25;;;-0.10;99.90;;;;;;5034459;28;20045;-80
2022/01/27 01:55:59;;;;;;;33.10;13.82;;;-0.40;99.90;;;;;;5063007;28;20033;-83
2022/01/27 01:58:25;;;;;;;36.10;13.73;;;-0.10;99.90;;;;;;5024174;28;20029;-83
2022/01/27 02:00:51;;;;;;;36.30;14.90;;;-0.10;99.90;;;;;;5023738;28;20029;-84
2022/01/27 02:03:16;;;;;;;31.92;13.45;;;-0.10;99.90;;;;;;5026427;28;20025;-82
2022/01/27 02:05:48;;;;;;;34.45;14.05;;;-0.30;99.90;;;;;;5031216;28;20033;-82
2022/01/27 02:19:09;;;;;;;36.25;15.30;;;-0.10;99.90;;;;;;5025350;28;20283;-80
2022/01/27 02:21:46;;;;;;;29.85;12.82;;;-0.20;99.90;;;;;;5007697;28;20036;-82
2022/01/27 02:24:12;;;;;;;33.70;13.25;;;-0.20;99.90;;;;;;5007742;28;20540;-84
2022/01/27 02:26:37;;;;;;;34.10;14.18;;;1.10;99.90;;;;;;5006786;28;20033;-81
2022/01/27 02:29:03;;;;;;;36.13;15.43;;;-0.20;99.90;;;;;;5023614;28;20266;-82
2022/01/27 02:31:29;;;;;;;36.83;15.32;;;-0.20;99.90;;;;;;5024078;28;20080;-83
2022/01/27 02:34:00;;;;;;;33.00;13.95;;;1.30;99.90;;;;;;5039506;28;20030;-83
2022/01/27 02:36:26;;;;;;;33.40;14.38;;;-0.20;99.90;;;;;;5037485;28;20047;-83
2022/01/27 02:38:52;;;;;;;41.28;16.20;;;-0.30;99.90;;;;;;5044247;28;20117;-84
2022/01/27 02:41:21;;;;;;;39.55;14.98;;;-0.20;99.90;;;;;;5044739;28;20478;-83
2022/01/27 02:43:47;;;;;;;35.15;13.45;;;-0.30;99.90;;;;;;5044518;28;20029;-82
2022/01/27 02:46:21;;;;;;;32.22;12.93;;;2.00;99.90;;;;;;5033428;28;20053;-83
2022/01/27 02:48:47;;;;;;;37.05;14.07;;;-0.30;99.90;;;;;;5008149;28;20128;-82
2022/01/27 02:51:12;;;;;;;34.28;13.65;;;-0.20;99.90;;;;;;5024471;28;20026;-84
2022/01/27 02:53:38;;;;;;;37.45;15.25;;;-0.40;99.90;;;;;;5025698;28;20040;-83
2022/01/27 02:56:04;;;;;;;33.72;14.55;;;-0.20;99.90;;;;;;5008928;28;20037;-83
2022/01/27 02:58:29;;;;;;;31.67;13.88;;;-0.20;99.90;;;;;;4993253;28;20597;-86
2022/01/27 03:00:55;;;;;;;35.67;13.75;;;-0.40;99.90;;;;;;5009186;28;20026;-84
2022/01/27 03:03:21;;;;;;;33.67;12.82;;;-0.40;99.90;;;;;;5053111;28;20033;-83
2022/01/27 03:05:47;;;;;;;31.35;13.80;;;-0.30;99.90;;;;;;5048585;28;20040;-81
2022/01/27 03:08:13;;;;;;;32.47;13.93;;;-0.40;99.90;;;;;;5051136;28;20383;-82
2022/01/27 03:10:44;;;;;;;32.72;15.05;;;-0.30;99.90;;;;;;5050007;28;20037;-83
2022/01/27 03:13:10;;;;;;;35.20;14.30;;;-0.40;99.90;;;;;;5043758;28;20037;-83
2022/01/27 03:15:35;;;;;;;37.22;14.57;;;-0.30;99.90;;;;;;5060571;28;20101;-84
2022/01/27 03:18:02;;;;;;;31.83;12.25;;;-0.30;99.90;;;;;;5045149;28;20068;-81
2022/01/27 03:20:32;;;;;;;34.38;14.40;;;2.00;99.90;;;;;;5047149;28;20029;-82
2022/01/27 03:22:59;;;;;;;34.72;14.27;;;-0.40;99.90;;;;;;5033262;28;20030;-83
2022/01/27 03:25:25;;;;;;;34.72;13.05;;;-0.30;99.90;;;;;;5017495;28;20025;-83
2022/01/27 03:27:51;;;;;;;32.67;14.65;;;-0.40;99.90;;;;;;5044634;28;20033;-83
2022/01/27 03:30:17;;;;;;;32.90;13.38;;;0.00;99.90;;;;;;5046345;28;20486;-83
2022/01/27 03:32:43;;;;;;;34.45;13.02;;;1.30;99.90;;;;;;5045413;28;20049;-83
2022/01/27 03:35:09;;;;;;;29.20;12.18;;;-0.40;99.90;;;;;;5029244;28;20030;-82
2022/01/27 03:37:35;;;;;;;40.28;14.70;;;-0.50;99.90;;;;;;5028635;28;20057;-82
2022/01/27 03:40:02;;;;;;;35.20;14.55;;;-0.30;99.90;;;;;;5012257;28;20057;-83
2022/01/27 03:42:29;;;;;;;30.90;12.95;;;-0.40;99.90;;;;;;5028908;28;20378;-82
2022/01/27 03:44:54;;;;;;;34.75;14.18;;;0.80;99.90;;;;;;5010901;28;20117;-82
2022/01/27 03:47:20;;;;;;;37.42;14.55;;;-0.60;99.90;;;;;;5011888;28;20022;-83
2022/01/27 03:49:45;;;;;;;34.75;13.80;;;-0.60;99.90;;;;;;5012243;28;20068;-83
2022/01/27 03:52:11;;;;;;;39.33;15.48;;;-0.40;99.90;;;;;;5028326;28;20030;-82
2022/01/27 03:54:37;;;;;;;42.00;15.75;;;-0.30;99.90;;;;;;5028535;28;20033;-81
2022/01/27 03:57:02;;;;;;;46.08;16.30;;;-0.60;99.90;;;;;;5022767;28;20037;-83
2022/01/27 03:59:29;;;;;;;38.10;14.98;;;-0.50;99.90;;;;;;5027902;28;20064;-82
2022/01/27 04:01:55;;;;;;;42.72;14.88;;;-0.50;99.90;;;;;;5044171;28;20029;-83
2022/01/27 04:04:21;;;;;;;40.38;14.85;;;-0.50;99.90;;;;;;5044801;28;20096;-83
2022/01/27 04:06:50;;;;;;;39.45;15.20;;;-0.40;99.90;;;;;;5045192;28;20022;-83
2022/01/27 04:09:16;;;;;;;35.78;15.50;;;-0.70;99.90;;;;;;5031356;28;20032;-82
2022/01/27 04:11:42;;;;;;;41.40;14.75;;;-0.50;99.90;;;;;;5028223;28;20073;-81
2022/01/27 04:14:10;;;;;;;39.05;15.73;;;-0.30;99.90;;;;;;5011092;28;20074;-81
2022/01/27 04:16:36;;;;;;;34.33;13.80;;;-0.50;99.90;;;;;;5011297;28;20033;-82
2022/01/27 04:19:03;;;;;;;29.58;12.77;;;-0.40;99.90;;;;;;5027013;28;20030;-82
2022/01/27 04:21:28;;;;;;;36.00;14.43;;;-0.40;99.90;;;;;;5011415;28;20030;-82
2022/01/27 04:23:54;;;;;;;34.63;14.77;;;-0.30;99.90;;;;;;5047030;28;20037;-83
2022/01/27 04:26:26;;;;;;;35.83;15.57;;;-0.40;99.90;;;;;;5030167;28;20026;-82
2022/01/27 04:28:52;;;;;;;31.80;13.60;;;1.30;99.90;;;;;;5026992;28;20029;-83
2022/01/27 04:31:19;;;;;;;37.05;14.35;;;-0.40;99.90;;;;;;5010893;28;20033;-82
2022/01/27 04:33:44;;;;;;;35.47;13.95;;;-0.30;99.90;;;;;;5038151;28;20033;-84
2022/01/27 04:36:19;;;;;;;32.08;13.48;;;-0.40;99.90;;;;;;5038909;28;20072;-84
2022/01/27 04:39:04;;;;;;;36.42;13.93;;;-0.40;99.90;;;;;;5039782;28;20025;-83
2022/01/27 04:44:16;;;;;;;36.63;14.70;;;-0.40;99.90;;;;;;5054310;28;20053;-83
2022/01/27 04:46:52;;;;;;;35.80;14.90;;;-0.40;99.90;;;;;;5037938;28;20544;-83
2022/01/27 04:49:18;;;;;;;36.90;14.85;;;-0.40;99.90;;;;;;5038093;28;20025;-83
2022/01/27 04:51:43;;;;;;;39.00;13.90;;;-0.30;99.90;;;;;;5055539;28;20032;-83
2022/01/27 04:54:17;;;;;;;40.97;14.73;;;1.50;99.90;;;;;;5039094;28;20029;-83
2022/01/27 04:56:43;;;;;;;34.28;13.82;;;-0.30;99.90;;;;;;5030415;28;20084;-82
2022/01/27 04:59:20;;;;;;;30.65;12.80;;;-0.40;99.90;;;;;;5021658;28;20041;-81
2022/01/27 05:01:58;;;;;;;33.53;13.77;;;-0.40;99.90;;;;;;5024549;28;20440;-83
2022/01/27 05:04:29;;;;;;;30.83;14.35;;;-0.20;99.90;;;;;;5036600;28;20048;-83
2022/01/27 05:06:55;;;;;;;30.45;13.40;;;-0.40;99.90;;;;;;5038462;28;20029;-83
2022/01/27 05:09:23;;;;;;;34.08;13.88;;;-0.40;99.90;;;;;;5038503;28;20091;-82
2022/01/27 05:11:56;;;;;;;38.80;14.05;;;-0.40;99.90;;;;;;5045212;28;20079;-81
2022/01/27 05:14:24;;;;;;;29.83;13.30;;;-0.60;99.90;;;;;;5055080;28;20092;-79
2022/01/27 05:16:50;;;;;;;34.80;14.70;;;0.10;99.90;;;;;;5055591;28;20056;-79
2022/01/27 05:19:17;;;;;;;30.08;13.50;;;-0.40;99.90;;;;;;5067172;28;20053;-79
2022/01/27 05:21:42;;;;;;;33.17;13.55;;;-0.30;99.90;;;;;;5044682;28;20029;-83
2022/01/27 05:24:09;;;;;;;33.35;13.07;;;0.30;99.90;;;;;;5039624;28;20103;-83
2022/01/27 05:26:35;;;;;;;34.40;14.27;;;-0.30;99.90;;;;;;5039122;28;20029;-83
2022/01/27 05:29:03;;;;;;;28.05;13.32;;;-0.50;99.90;;;;;;5039334;28;20112;-84
2022/01/27 05:31:29;;;;;;;37.17;14.10;;;-0.30;99.90;;;;;;5038876;28;20042;-83
2022/01/27 05:33:55;;;;;;;36.60;14.00;;;-0.40;99.90;;;;;;5055383;28;20034;-83
2022/01/27 05:36:21;;;;;;;31.98;13.25;;;-0.50;99.90;;;;;;5021977;28;20033;-83
2022/01/27 05:38:46;;;;;;;39.83;14.85;;;-0.40;99.90;;;;;;5037933;28;20104;-84
2022/01/27 05:41:16;;;;;;;28.92;12.93;;;-0.50;99.90;;;;;;5020884;28;20093;-82
2022/01/27 05:43:43;;;;;;;31.23;13.38;;;-0.50;99.90;;;;;;5020236;28;20032;-82
2022/01/27 05:46:09;;;;;;;28.15;12.43;;;-0.60;99.90;;;;;;5019033;28;20030;-83
2022/01/27 05:48:35;;;;;;;30.58;12.43;;;-0.40;99.90;;;;;;4986365;28;20029;-81
2022/01/27 05:51:00;;;;;;;27.00;12.45;;;0.00;99.90;;;;;;5021606;28;20038;-82
2022/01/27 05:53:26;;;;;;;29.40;11.85;;;-0.40;99.90;;;;;;5022237;28;20057;-82
2022/01/27 05:55:52;;;;;;;29.42;11.95;;;-0.50;99.90;;;;;;5043344;28;20037;-81
2022/01/27 05:58:18;;;;;;;29.13;11.90;;;-0.40;99.90;;;;;;5050286;28;20030;-84
2022/01/27 06:00:43;;;;;;;31.30;11.88;;;-0.70;99.90;;;;;;5040371;28;20029;-82
2022/01/27 06:03:09;;;;;;;32.65;13.90;;;0.50;99.90;;;;;;5033959;28;20046;-83
2022/01/27 06:05:35;;;;;;;30.70;14.13;;;0.70;99.90;;;;;;5028797;28;20052;-82
2022/01/27 06:08:00;;;;;;;34.58;13.70;;;-0.50;99.90;;;;;;5055057;28;20033;-82
2022/01/27 06:10:26;;;;;;;31.13;13.23;;;-0.50;99.90;;;;;;5055257;28;20121;-83
2022/01/27 06:12:56;;;;;;;30.85;12.90;;;-0.40;99.90;;;;;;5033092;28;20030;-83
2022/01/27 06:15:23;;;;;;;34.70;12.95;;;-0.50;99.90;;;;;;5018327;28;20037;-82
2022/01/27 06:17:49;;;;;;;32.53;13.07;;;-0.40;99.90;;;;;;5017621;28;20032;-82
2022/01/27 06:20:16;;;;;;;33.40;13.05;;;-0.30;99.90;;;;;;5017781;28;20029;-83
2022/01/27 06:22:42;;;;;;;30.05;12.50;;;-0.50;99.90;;;;;;5020153;28;20018;-82
2022/01/27 06:25:09;;;;;;;22.35;10.10;;;-0.50;99.90;;;;;;5013765;28;20022;-84
2022/01/27 06:27:35;;;;;;;33.38;12.82;;;-0.40;99.90;;;;;;5038818;28;20096;-84
2022/01/27 06:30:02;;;;;;;25.83;11.38;;;-0.40;99.90;;;;;;5038067;28;20061;-83
2022/01/27 06:32:27;;;;;;;29.40;12.80;;;-0.40;99.90;;;;;;5036997;28;20045;-83
2022/01/27 06:34:53;;;;;;;31.77;12.20;;;0.60;99.90;;;;;;5021870;28;20121;-83
2022/01/27 06:37:18;;;;;;;25.10;11.05;;;-0.50;99.90;;;;;;5018429;28;20034;-84
2022/01/27 06:39:44;;;;;;;27.45;11.73;;;-0.40;99.90;;;;;;5001684;28;20033;-83
2022/01/27 06:42:10;;;;;;;25.73;12.55;;;-0.40;99.90;;;;;;5026682;28;20036;-83
2022/01/27 06:44:36;;;;;;;30.08;13.52;;;-0.40;99.90;;;;;;5041427;28;20052;-82
2022/01/27 06:47:02;;;;;;;30.60;11.68;;;-0.40;99.90;;;;;;5061627;28;20033;-81
2022/01/27 06:49:28;;;;;;;27.98;12.70;;;-0.40;99.90;;;;;;5042074;28;20061;-82
2022/01/27 06:51:54;;;;;;;29.45;11.57;;;-0.40;99.90;;;;;;5040444;28;20029;-82
2022/01/27 06:54:19;;;;;;;26.50;12.48;;;0.20;99.90;;;;;;5062390;28;20040;-82
2022/01/27 06:56:46;;;;;;;29.48;11.75;;;-0.40;99.90;;;;;;5059441;28;20103;-82
2022/01/27 06:59:11;;;;;;;31.02;11.40;;;-0.40;99.90;;;;;;5056632;28;20517;-82
2022/01/27 07:01:39;;;;;;;36.38;12.95;;;-0.40;99.90;;;;;;5019767;28;20071;-82
2022/01/27 07:04:04;;;;;;;30.08;12.35;;;-0.20;99.90;;;;;;4998970;28;20093;-80
2022/01/27 07:06:32;;;;;;;23.10;10.68;;;1.40;99.90;;;;;;5026897;28;20400;-81
2022/01/27 07:08:57;;;;;;;25.58;12.02;;;-0.30;99.90;;;;;;5027226;28;20033;-82
2022/01/27 07:11:23;;;;;;;23.88;10.13;;;1.50;99.90;;;;;;5027730;28;20033;-81
2022/01/27 07:13:49;;;;;;;22.08;10.07;;;-0.30;99.90;;;;;;5029030;28;20025;-81
2022/01/27 07:16:15;;;;;;;23.33;10.02;;;-0.50;99.90;;;;;;5034868;28;20437;-80
2022/01/27 07:18:40;;;;;;;21.90;10.07;;;-0.40;99.90;;;;;;5039266;28;20056;-82
2022/01/27 07:21:06;;;;;;;17.63;8.60;;;0.40;99.90;;;;;;5022813;28;20040;-82
2022/01/27 07:23:32;;;;;;;25.60;10.68;;;0.60;99.90;;;;;;5022704;28;20499;-83
2022/01/27 07:25:58;;;;;;;22.00;8.80;;;-0.60;99.90;;;;;;5021762;28;20033;-82
2022/01/27 07:28:24;;;;;;;23.92;9.73;;;-0.30;99.90;;;;;;5020471;28;20018;-81
2022/01/27 07:30:49;;;;;;;21.55;8.35;;;-0.30;99.90;;;;;;5003908;28;20372;-82
2022/01/27 07:33:15;;;;;;;25.40;9.52;;;-0.30;99.90;;;;;;5033378;28;20536;-79
2022/01/27 07:35:41;;;;;;;23.55;9.82;;;-0.30;99.90;;;;;;5024000;28;20059;-82
2022/01/27 07:38:07;;;;;;;23.95;9.20;;;-0.20;99.90;;;;;;5040342;28;20030;-83
2022/01/27 07:40:33;;;;;;;19.20;7.80;;;-0.30;99.90;;;;;;5040582;28;20052;-83
2022/01/27 07:42:59;;;;;;;21.17;9.45;;;0.00;99.90;;;;;;5021356;28;20026;-83
2022/01/27 07:45:25;;;;;;;20.05;7.57;;;-0.40;99.90;;;;;;5025398;28;20022;-82
2022/01/27 07:47:50;;;;;;;20.35;8.60;;;-0.30;99.90;;;;;;5033925;28;20036;-81
2022/01/27 07:50:16;;;;;;;19.48;8.00;;;1.20;99.90;;;;;;5021942;28;20107;-81
2022/01/27 07:52:42;;;;;;;22.05;8.93;;;-0.20;99.90;;;;;;5042186;28;20045;-80
2022/01/27 07:55:09;;;;;;;17.70;6.53;;;-0.40;99.90;;;;;;5048006;28;20037;-82
2022/01/27 07:57:34;;;;;;;21.10;6.88;;;-0.20;99.90;;;;;;5038228;28;20505;-81
2022/01/27 08:00:00;;;;;;;15.15;7.43;;;1.50;99.90;;;;;;5019977;28;20094;-80
2022/01/27 08:02:26;;;;;;;19.50;8.07;;;1.30;99.90;;;;;;5016070;28;20041;-81
2022/01/27 08:04:52;;;;;;;18.67;7.32;;;1.70;99.90;;;;;;5049228;28;20026;-81
2022/01/27 08:07:17;;;;;;;17.00;8.45;;;-0.20;99.90;;;;;;5048304;28;20021;-82
2022/01/27 08:09:43;;;;;;;13.85;7.28;;;1.20;99.90;;;;;;5049322;28;20041;-79
2022/01/27 08:12:09;;;;;;;17.80;7.03;;;1.80;99.90;;;;;;5025409;28;20029;-82
2022/01/27 08:14:35;;;;;;;13.20;5.70;;;-0.20;99.90;;;;;;5024575;28;20403;-82
2022/01/27 08:17:00;;;;;;;15.27;6.95;;;-0.30;99.90;;;;;;5009914;28;20080;-83
2022/01/27 08:19:26;;;;;;;16.67;7.57;;;-0.10;99.90;;;;;;5015299;28;20057;-81
2022/01/27 08:21:51;;;;;;;19.25;7.57;;;2.30;99.90;;;;;;5020568;28;20030;-81
2022/01/27 08:24:18;;;;;;;15.88;7.22;;;-0.30;99.90;;;;;;5050159;28;20033;-81
2022/01/27 08:26:44;;;;;;;17.40;7.22;;;-0.10;99.90;;;;;;5043289;28;20026;-79
2022/01/27 08:29:21;;;;;;;16.67;7.95;;;-0.20;99.90;;;;;;5014162;28;20085;-79
2022/01/27 08:34:37;;;;;;;21.25;8.43;;;-0.20;99.90;;;;;;5049300;28;20029;-74
2022/01/27 08:37:14;;;;;;;23.77;9.18;;;-0.20;99.90;;;;;;5020119;28;20494;-78
2022/01/27 08:39:40;;;;;;;19.48;8.82;;;-0.10;99.90;;;;;;5030103;28;20030;-78
2022/01/27 08:42:07;;;;;;;21.73;9.55;;;-0.10;99.90;;;;;;5047857;28;20046;-78
2022/01/27 08:44:36;;;;;;;27.00;11.38;;;0.00;99.90;;;;;;5025643;28;20040;-79
2022/01/27 08:47:02;;;;;;;24.23;9.65;;;0.00;99.90;;;;;;5044460;28;20053;-76
2022/01/27 08:49:28;;;;;;;28.35;10.48;;;-0.10;99.90;;;;;;5042159;28;20049;-79
2022/01/27 08:51:56;;;;;;;22.52;10.38;;;-0.10;99.90;;;;;;5037694;28;20037;-77
2022/01/27 08:54:22;;;;;;;27.58;12.98;;;-0.30;99.90;;;;;;5027965;28;20056;-79
2022/01/27 08:56:48;;;;;;;26.95;11.77;;;-0.30;99.90;;;;;;5030586;28;20313;-79
2022/01/27 08:59:14;;;;;;;25.63;11.27;;;1.00;99.90;;;;;;5020574;28;20064;-83
2022/01/27 09:01:40;;;;;;;27.02;12.38;;;0.10;99.90;;;;;;5030772;28;20033;-82
2022/01/27 09:04:07;;;;;;;23.13;10.82;;;1.40;99.90;;;;;;5022601;28;20034;-80
2022/01/27 09:06:32;;;;;;;34.33;13.75;;;-0.30;99.90;;;;;;5039611;28;20033;-77
2022/01/27 09:08:59;;;;;;;37.53;11.80;;;-0.20;99.90;;;;;;5033544;28;20034;-77
2022/01/27 09:11:25;;;;;;;30.80;12.55;;;0.20;99.90;;;;;;5028569;28;20033;-77
2022/01/27 09:13:53;;;;;;;33.30;13.02;;;0.30;99.90;;;;;;5037001;28;20430;-80
2022/01/27 09:16:19;;;;;;;26.83;12.90;;;0.50;99.90;;;;;;5020714;28;20041;-81
2022/01/27 09:18:45;;;;;;;37.05;12.82;;;1.40;99.90;;;;;;5019810;28;20030;-82
2022/01/27 09:21:17;;;;;;;32.70;14.70;;;2.30;99.90;;;;;;4997943;28;20106;-80
2022/01/27 09:23:43;;;;;;;34.03;14.30;;;-0.20;99.90;;;;;;5029021;28;20026;-81
2022/01/27 09:26:26;;;;;;;31.48;11.68;;;0.00;99.90;;;;;;5041880;28;20038;-80
2022/01/27 09:28:52;;;;;;;39.10;15.32;;;1.90;99.90;;;;;;5059909;28;20026;-81
2022/01/27 09:31:18;;;;;;;36.50;14.48;;;-0.20;99.90;;;;;;5042449;28;20048;-81
2022/01/27 09:33:43;;;;;;;37.35;16.15;;;2.20;99.90;;;;;;5039849;28;20026;-81
2022/01/27 09:36:12;;;;;;;33.63;14.77;;;-0.20;99.90;;;;;;5003226;28;20053;-81
2022/01/27 09:38:38;;;;;;;34.90;14.63;;;-0.10;99.90;;;;;;4995293;28;20033;-80
2022/01/27 09:41:06;;;;;;;32.78;12.77;;;0.00;99.90;;;;;;5018926;28;20443;-81
2022/01/27 09:43:33;;;;;;;38.58;16.25;;;0.00;99.90;;;;;;5018914;28;20021;-82
2022/01/27 09:45:59;;;;;;;36.50;14.93;;;0.10;99.90;;;;;;5007426;28;20478;-82
2022/01/27 09:48:26;;;;;;;35.47;14.93;;;0.20;99.90;;;;;;5034314;28;20477;-82
2022/01/27 09:51:23;;;;;;;33.67;13.30;;;0.20;99.90;;;;;;5022321;28;20036;-82
2022/01/27 09:53:48;;;;;;;36.50;14.75;;;0.30;99.90;;;;;;5047007;28;20037;-83
2022/01/27 09:56:14;;;;;;;30.13;13.13;;;0.30;99.90;;;;;;5048201;28;20413;-79
2022/01/27 09:58:40;;;;;;;34.53;14.85;;;0.20;99.90;;;;;;5042698;28;20057;-81
2022/01/27 10:01:05;;;;;;;34.05;13.32;;;0.30;99.90;;;;;;5050227;28;20044;-82
2022/01/27 10:03:31;;;;;;;34.15;14.60;;;0.30;99.90;;;;;;5044657;28;20029;-82
2022/01/27 10:06:12;;;;;;;32.67;14.48;;;0.50;99.90;;;;;;5038474;28;20044;-79
2022/01/27 10:08:42;;;;;;;36.10;14.35;;;0.50;99.90;;;;;;5070955;28;20020;-79
2022/01/27 10:11:16;;;;;;;37.60;16.00;;;0.50;99.90;;;;;;5053737;28;20025;-79
2022/01/27 10:13:45;;;;;;;37.03;15.38;;;0.70;99.90;;;;;;5061628;28;20029;-83
2022/01/27 10:16:40;;;;;;;36.55;15.05;;;0.70;99.90;;;;;;5049922;28;20100;-80
2022/01/27 10:19:08;;;;;;;32.70;12.93;;;1.00;99.90;;;;;;5049129;28;20539;-81
2022/01/27 10:21:35;;;;;;;35.45;15.43;;;0.70;99.90;;;;;;5063046;28;20056;-82
2022/01/27 10:24:26;;;;;;;34.08;14.30;;;0.90;99.90;;;;;;5044119;28;20028;-81
2022/01/27 10:27:18;;;;;;;32.08;14.18;;;0.80;99.90;;;;;;5036745;28;20037;-81
2022/01/27 10:30:02;;;;;;;32.97;14.45;;;0.90;99.90;;;;;;5014844;28;20514;-82
2022/01/27 10:32:42;;;;;;;35.97;15.32;;;1.60;99.90;;;;;;5027563;28;20068;-82
2022/01/27 10:35:10;;;;;;;36.40;15.80;;;1.10;99.90;;;;;;5009104;28;20084;-82
2022/01/27 10:38:08;;;;;;;42.55;16.17;;;1.00;99.90;;;;;;5016208;28;20068;-81
2022/01/27 10:40:35;;;;;;;38.50;15.75;;;1.00;99.90;;;;;;5015746;28;20026;-82
2022/01/27 10:43:13;;;;;;;31.20;14.73;;;0.90;99.90;;;;;;5016184;28;20030;-81
2022/01/27 10:46:00;;;;;;;38.55;15.52;;;0.90;99.90;;;;;;5022385;28;20026;-83
2022/01/27 10:48:30;;;;;;;39.55;15.02;;;0.90;99.90;;;;;;5023608;28;20022;-82
2022/01/27 10:51:08;;;;;;;33.75;14.60;;;1.00;99.90;;;;;;5031947;28;20045;-82
2022/01/27 10:54:18;;;;;;;34.30;15.77;;;1.40;99.90;;;;;;5025280;28;20060;-82
2022/01/27 10:56:44;;;;;;;32.58;14.82;;;1.80;99.90;;;;;;5037414;28;20033;-79
2022/01/27 10:59:12;;;;;;;29.40;12.93;;;1.20;99.90;;;;;;5043984;28;20048;-77
2022/01/27 11:01:43;;;;;;;28.95;12.40;;;2.50;99.90;;;;;;5049906;28;20041;-82
2022/01/27 11:04:12;;;;;;;30.52;12.75;;;1.20;99.90;;;;;;5043412;28;20031;-82
2022/01/27 11:06:59;;;;;;;28.90;12.45;;;1.60;99.90;;;;;;5045061;28;20037;-82
2022/01/27 11:09:27;;;;;;;32.13;14.15;;;1.40;99.90;;;;;;5044678;28;20037;-85
2022/01/27 11:11:55;;;;;;;32.67;13.93;;;2.10;99.90;;;;;;5043696;28;20549;-83
2022/01/27 11:14:24;;;;;;;30.20;13.57;;;3.60;99.90;;;;;;5045088;28;20041;-84
2022/01/27 11:16:52;;;;;;;28.92;11.95;;;1.60;99.90;;;;;;5043953;28;20036;-85
2022/01/27 11:19:36;;;;;;;30.48;14.35;;;1.60;99.90;;;;;;5044129;28;20029;-84
2022/01/27 11:22:41;;;;;;;21.38;10.93;;;3.90;99.90;;;;;;5044854;28;20034;-82
2022/01/27 11:27:20;;;;;;;32.10;14.60;;;4.50;99.90;;;;;;5029532;28;20438;-83
2022/01/27 11:29:52;;;;;;;22.63;10.00;;;2.10;99.90;;;;;;5026021;28;20124;-84
2022/01/27 11:32:32;;;;;;;29.05;12.55;;;3.80;99.90;;;;;;5044376;28;20120;-83
2022/01/27 11:34:57;;;;;;;29.58;13.18;;;2.10;99.90;;;;;;5034143;28;20036;-82
2022/01/27 11:37:35;;;;;;;27.27;11.57;;;2.60;99.90;;;;;;5019420;28;20026;-81
2022/01/27 11:40:09;;;;;;;23.52;10.50;;;2.50;99.90;;;;;;5018940;28;20030;-81
2022/01/27 11:42:35;;;;;;;27.67;12.48;;;2.40;99.90;;;;;;5022811;28;20430;-80
2022/01/27 11:45:22;;;;;;;24.23;11.88;;;2.30;99.90;;;;;;5038875;28;20107;-80
2022/01/27 11:47:57;;;;;;;26.63;11.05;;;2.30;99.90;;;;;;5042001;28;20442;-82
2022/01/27 11:50:35;;;;;;;23.80;11.63;;;2.60;99.90;;;;;;5037909;28;20034;-83
2022/01/27 11:53:02;;;;;;;23.50;11.27;;;2.40;99.90;;;;;;5039169;28;20404;-82
2022/01/27 11:55:29;;;;;;;27.23;12.40;;;2.40;99.90;;;;;;5038099;28;20021;-82
2022/01/27 11:57:56;;;;;;;24.42;11.27;;;2.30;99.90;;;;;;5040403;28;20029;-83
2022/01/27 12:00:28;;;;;;;23.50;11.13;;;2.70;99.90;;;;;;5040446;28;20029;-82
2022/01/27 12:02:57;;;;;;;26.27;11.95;;;2.50;99.90;;;;;;5040279;28;20067;-82
2022/01/27 12:05:38;;;;;;;23.42;11.63;;;2.40;99.90;;;;;;5051455;28;20086;-83
2022/01/27 12:08:12;;;;;;;24.35;12.30;;;2.50;99.90;;;;;;5053582;28;20046;-84
2022/01/27 12:10:57;;;;;;;24.77;11.73;;;2.60;99.90;;;;;;5046766;28;20033;-83
2022/01/27 12:13:27;;;;;;;24.73;11.82;;;2.60;99.90;;;;;;5046593;28;20021;-84
2022/01/27 12:18:59;;;;;;;25.02;11.85;;;2.60;99.90;;;;;;5042436;28;20029;-83
2022/01/27 12:21:40;;;;;;;23.08;12.02;;;2.60;99.90;;;;;;5038701;28;20029;-82
2022/01/27 12:26:48;;;;;;;21.33;11.50;;;2.50;99.90;;;;;;5041847;28;20093;-82
2022/01/27 12:29:24;;;;;;;25.38;12.68;;;2.90;99.90;;;;;;5038926;28;20260;-83
2022/01/27 12:31:50;;;;;;;23.10;11.18;;;2.80;99.90;;;;;;5033516;28;20034;-82
2022/01/27 12:34:17;;;;;;;25.35;12.88;;;3.00;99.90;;;;;;5024529;28;20029;-83
2022/01/27 12:37:07;;;;;;;24.08;10.90;;;3.10;99.90;;;;;;5002636;28;20120;-82
2022/01/27 12:39:42;;;;;;;24.85;11.48;;;3.10;99.90;;;;;;5037075;28;20022;-84
2022/01/27 12:42:15;;;;;;;22.52;11.77;;;3.10;99.90;;;;;;5034325;28;20022;-85
2022/01/27 12:44:58;;;;;;;25.05;11.23;;;3.00;99.90;;;;;;5020885;28;20213;-83
2022/01/27 12:47:25;;;;;;;22.42;11.05;;;3.10;99.90;;;;;;5039815;28;20561;-82
2022/01/27 12:50:04;;;;;;;18.52;9.27;;;2.90;99.90;;;;;;5039042;28;20032;-84
2022/01/27 12:52:34;;;;;;;25.23;11.50;;;4.70;99.90;;;;;;5062181;28;20026;-81
2022/01/27 12:55:00;;;;;;;22.60;10.35;;;3.30;99.90;;;;;;5039351;28;20026;-83
2022/01/27 12:57:30;;;;;;;24.02;11.40;;;4.60;99.90;;;;;;5022128;28;20110;-84
2022/01/27 12:59:57;;;;;;;23.45;11.70;;;3.50;99.90;;;;;;5021598;28;20022;-82
2022/01/27 13:02:24;;;;;;;24.17;10.48;;;3.70;99.90;;;;;;5028993;28;20036;-82
2022/01/27 13:04:54;;;;;;;22.80;10.40;;;5.20;99.90;;;;;;5030509;28;20029;-83
2022/01/27 13:07:21;;;;;;;17.00;9.45;;;4.10;99.90;;;;;;5020471;28;20033;-80
2022/01/27 13:10:09;;;;;;;20.27;9.18;;;3.50;99.90;;;;;;5020755;28;20124;-81
2022/01/27 13:12:44;;;;;;;21.55;11.07;;;3.50;99.90;;;;;;5037829;28;20040;-81
2022/01/27 13:15:15;;;;;;;16.55;8.98;;;5.60;99.90;;;;;;5033887;28;20029;-80
2022/01/27 13:20:27;;;;;;;23.85;10.57;;;3.40;99.90;;;;;;5038381;28;20044;-82
2022/01/27 13:23:06;;;;;;;16.90;8.77;;;5.00;99.90;;;;;;5024021;28;20438;-81
2022/01/27 13:25:49;;;;;;;21.80;11.35;;;3.20;99.90;;;;;;5038614;28;20264;-81
2022/01/27 13:28:23;;;;;;;18.65;9.88;;;3.50;99.90;;;;;;5034153;28;20049;-79
2022/01/27 13:30:51;;;;;;;21.38;10.52;;;3.50;99.90;;;;;;5002356;28;20065;-80
2022/01/27 13:33:20;;;;;;;22.17;10.00;;;3.40;99.90;;;;;;5033625;28;20394;-81
2022/01/27 13:35:47;;;;;;;20.48;10.88;;;3.50;99.90;;;;;;5042019;28;20028;-80